createdAt,value
2022-10-22T00:00:56.242Z,100274.91
2022-10-22T00:03:22.714Z,100268.25
2022-10-22T00:05:49.983Z,100277.34
2022-10-22T00:08:17.287Z,100272.25
2022-10-22T00:10:43.748Z,100274.28
2022-10-22T00:13:11.007Z,100277.84
2022-10-22T00:15:37.433Z,100261.09
2022-10-22T00:18:03.842Z,100261.88
2022-10-22T00:20:30.245Z,100259.91
2022-10-22T00:22:56.662Z,100251.16
2022-10-22T00:25:23.898Z,100260.69
2022-10-22T00:27:50.330Z,100260.59
2022-10-22T00:30:17.645Z,100257.88
2022-10-22T00:32:44.056Z,100261.78
2022-10-22T00:35:11.325Z,100249.09
2022-10-22T00:37:38.586Z,100246.44
2022-10-22T00:40:05.038Z,100242.84
2022-10-22T00:42:32.291Z,100238.41
2022-10-22T00:44:59.520Z,100234.00
2022-10-22T00:47:25.936Z,100225.72
2022-10-22T00:49:53.218Z,100226.81
2022-10-22T00:52:19.674Z,100221.53
2022-10-22T00:54:46.072Z,100224.69
2022-10-22T00:57:12.492Z,100222.34
2022-10-22T00:59:38.895Z,100229.47
2022-10-22T01:02:05.325Z,100223.22
2022-10-22T01:04:32.576Z,100220.84
2022-10-22T01:06:59.889Z,100217.56
2022-10-22T01:09:27.131Z,100208.88
2022-10-22T01:11:54.431Z,100203.63
2022-10-22T01:14:21.144Z,100199.25
2022-10-22T01:16:48.371Z,100206.41
2022-10-22T01:19:14.792Z,100213.19
2022-10-22T01:21:41.192Z,100214.34
2022-10-22T01:24:08.486Z,100217.94
2022-10-22T01:26:35.723Z,100206.00
2022-10-22T01:29:03.029Z,100193.69
2022-10-22T01:31:29.439Z,100200.88
2022-10-22T01:33:55.841Z,100198.47
2022-10-22T01:36:22.252Z,100197.75
2022-10-22T01:38:49.529Z,100190.13
2022-10-22T01:41:15.958Z,100192.13
2022-10-22T01:43:43.281Z,100197.28
2022-10-22T01:46:10.562Z,100190.16
2022-10-22T01:48:37.807Z,100191.00
2022-10-22T01:51:04.232Z,100191.44
2022-10-22T01:53:31.614Z,100196.94
2022-10-22T01:55:58.971Z,100203.72
2022-10-22T01:58:26.196Z,100195.78
2022-10-22T02:00:52.605Z,100195.00
2022-10-22T02:03:22.873Z,100197.78
2022-10-22T02:05:51.072Z,100194.56
2022-10-22T02:08:18.421Z,100189.44
2022-10-22T02:13:11.145Z,100181.06
2022-10-22T02:15:38.403Z,100171.53
2022-10-22T02:20:32.924Z,100183.88
2022-10-22T02:22:59.329Z,100176.78
2022-10-22T02:25:26.554Z,100181.53
2022-10-22T02:27:53.814Z,100183.50
2022-10-22T02:30:21.119Z,100176.38
2022-10-22T02:32:47.582Z,100176.38
2022-10-22T02:35:13.983Z,100177.63
2022-10-22T02:37:41.211Z,100185.50
2022-10-22T02:40:07.605Z,100177.56
2022-10-22T02:42:34.819Z,100185.50
2022-10-22T02:45:02.084Z,100183.50
2022-10-22T02:47:29.305Z,100182.63
2022-10-22T02:49:55.756Z,100183.00
2022-10-22T02:52:22.994Z,100182.63
2022-10-22T02:54:50.219Z,100191.31
2022-10-22T02:57:16.679Z,100189.69
2022-10-22T02:59:43.914Z,100182.59
2022-10-22T03:02:10.457Z,100185.38
2022-10-22T03:04:37.690Z,100184.97
2022-10-22T03:07:06.778Z,100187.75
2022-10-22T03:09:34.000Z,100178.97
2022-10-22T03:12:01.214Z,100180.59
2022-10-22T03:14:28.507Z,100179.47
2022-10-22T03:16:55.719Z,100173.88
2022-10-22T03:19:22.178Z,100167.97
2022-10-22T03:21:49.402Z,100165.94
2022-10-22T03:24:15.810Z,100159.25
2022-10-22T03:26:42.283Z,100166.44
2022-10-22T03:29:09.552Z,100160.88
2022-10-22T03:31:36.032Z,100160.03
2022-10-22T03:34:02.445Z,100157.25
2022-10-22T03:36:28.915Z,100169.59
2022-10-22T03:38:56.171Z,100162.81
2022-10-22T03:41:23.501Z,100177.16
2022-10-22T03:43:51.793Z,100177.94
2022-10-22T03:46:18.188Z,100181.13
2022-10-22T03:48:45.418Z,100187.06
2022-10-22T03:51:12.613Z,100192.22
2022-10-22T03:53:39.034Z,100187.09
2022-10-22T03:56:05.431Z,100183.41
2022-10-22T03:58:31.893Z,100168.66
2022-10-22T04:00:58.382Z,100161.09
2022-10-22T04:03:25.671Z,100157.88
2022-10-22T04:05:52.884Z,100173.41
2022-10-22T04:08:19.286Z,100179.81
2022-10-22T04:10:48.901Z,100191.72
2022-10-22T04:13:15.325Z,100190.53
2022-10-22T04:18:17.601Z,100171.03
2022-10-22T04:20:45.860Z,100162.72
2022-10-22T04:23:13.069Z,100159.13
2022-10-22T04:25:39.526Z,100156.38
2022-10-22T04:28:06.823Z,100146.03
2022-10-22T04:30:33.230Z,100142.09
2022-10-22T04:33:01.486Z,100132.09
2022-10-22T04:35:29.765Z,100131.31
2022-10-22T04:37:56.226Z,100134.88
2022-10-22T04:40:24.498Z,100142.03
2022-10-22T04:42:52.782Z,100134.94
2022-10-22T04:45:19.244Z,100132.50
2022-10-22T04:50:12.899Z,100126.53
2022-10-22T04:52:39.292Z,100126.53
2022-10-22T04:55:05.719Z,100123.78
2022-10-22T04:57:32.086Z,100119.72
2022-10-22T04:59:58.418Z,100136.47
2022-10-22T05:02:24.830Z,100131.72
2022-10-22T05:04:51.271Z,100137.75
2022-10-22T05:07:17.728Z,100135.03
2022-10-22T05:09:44.914Z,100133.38
2022-10-22T05:12:11.279Z,100138.94
2022-10-22T05:14:41.398Z,100144.44
2022-10-22T05:17:10.369Z,100150.38
2022-10-22T05:19:36.704Z,100143.56
2022-10-22T05:22:03.920Z,100147.50
2022-10-22T05:24:33.069Z,100151.50
2022-10-22T05:27:02.254Z,100155.03
2022-10-22T05:29:31.387Z,100162.16
2022-10-22T05:31:57.892Z,100161.38
2022-10-22T05:34:25.114Z,100163.41
2022-10-22T05:36:51.585Z,100157.38
2022-10-22T05:39:17.985Z,100155.41
2022-10-22T05:41:45.177Z,100156.19
2022-10-22T05:44:13.487Z,100151.38
2022-10-22T05:46:40.709Z,100152.97
2022-10-22T05:49:07.986Z,100153.41
2022-10-22T05:51:34.376Z,100155.41
2022-10-22T05:54:01.651Z,100145.88
2022-10-22T05:56:28.002Z,100152.25
2022-10-22T05:58:54.550Z,100146.28
2022-10-22T06:01:21.797Z,100146.69
2022-10-22T06:03:48.268Z,100143.91
2022-10-22T06:06:14.683Z,100144.25
2022-10-22T06:08:41.140Z,100153.41
2022-10-22T06:11:08.488Z,100158.19
2022-10-22T06:13:34.906Z,100158.91
2022-10-22T06:16:02.200Z,100160.59
2022-10-22T06:18:28.615Z,100159.44
2022-10-22T06:20:55.069Z,100166.66
2022-10-22T06:23:21.496Z,100167.41
2022-10-22T06:25:48.730Z,100167.53
2022-10-22T06:28:15.249Z,100161.53
2022-10-22T06:30:44.275Z,100173.53
2022-10-22T06:33:13.788Z,100181.13
2022-10-22T06:35:40.219Z,100172.78
2022-10-22T06:38:07.615Z,100170.84
2022-10-22T06:40:34.052Z,100178.78
2022-10-22T06:43:01.414Z,100191.53
2022-10-22T06:45:28.699Z,100175.16
2022-10-22T06:47:55.124Z,100178.75
2022-10-22T06:50:21.584Z,100181.53
2022-10-22T06:52:48.924Z,100181.56
2022-10-22T06:55:15.381Z,100181.53
2022-10-22T06:57:43.282Z,100181.09
2022-10-22T07:00:10.897Z,100181.13
2022-10-22T07:02:37.325Z,100164.88
2022-10-22T07:05:04.664Z,100174.88
2022-10-22T07:07:31.938Z,100187.97
2022-10-22T07:09:59.280Z,100203.84
2022-10-22T07:12:26.661Z,100214.19
2022-10-22T07:14:53.976Z,100211.03
2022-10-22T07:17:21.386Z,100208.25
2022-10-22T07:19:51.171Z,100210.25
2022-10-22T07:22:18.517Z,100213.81
2022-10-22T07:24:45.906Z,100221.78
2022-10-22T07:27:13.239Z,100216.19
2022-10-22T07:29:40.585Z,100221.78
2022-10-22T07:32:08.202Z,100219.38
2022-10-22T07:34:38.445Z,100212.63
2022-10-22T07:37:07.179Z,100209.03
2022-10-22T07:39:34.752Z,100206.25
2022-10-22T07:42:01.220Z,100196.31
2022-10-22T07:44:27.645Z,100197.88
2022-10-22T07:46:55.453Z,100202.25
2022-10-22T07:49:23.322Z,100201.06
2022-10-22T07:51:50.735Z,100195.50
2022-10-22T07:54:17.196Z,100192.66
2022-10-22T07:56:44.544Z,100206.91
2022-10-22T07:59:11.915Z,100202.34
2022-10-22T08:01:38.406Z,100206.88
2022-10-22T08:04:05.828Z,100210.94
2022-10-22T08:06:33.188Z,100205.03
2022-10-22T08:09:00.590Z,100214.19
2022-10-22T08:11:27.999Z,100217.03
2022-10-22T08:13:54.657Z,100216.38
2022-10-22T08:16:21.112Z,100217.50
2022-10-22T08:18:47.549Z,100223.41
2022-10-22T08:21:14.915Z,100225.06
2022-10-22T08:23:41.390Z,100226.63
2022-10-22T08:26:07.870Z,100225.09
2022-10-22T08:28:34.325Z,100221.16
2022-10-22T08:31:00.816Z,100235.91
2022-10-22T08:33:28.189Z,100235.63
2022-10-22T08:35:54.640Z,100234.16
2022-10-22T08:38:21.098Z,100234.50
2022-10-22T08:43:20.854Z,100229.69
2022-10-22T08:45:48.219Z,100224.88
2022-10-22T08:48:15.592Z,100225.28
2022-10-22T08:50:42.956Z,100220.50
2022-10-22T08:53:09.417Z,100224.56
2022-10-22T08:55:37.414Z,100222.06
2022-10-22T08:58:04.067Z,100220.81
2022-10-22T09:00:31.444Z,100224.31
2022-10-22T09:02:57.954Z,100233.41
2022-10-22T09:05:24.394Z,100240.13
2022-10-22T09:07:51.805Z,100239.69
2022-10-22T09:10:19.277Z,100245.28
2022-10-22T09:12:45.750Z,100254.84
2022-10-22T09:15:12.382Z,100260.03
2022-10-22T09:17:40.051Z,100249.81
2022-10-22T09:20:07.756Z,100255.38
2022-10-22T09:25:06.776Z,100258.84
2022-10-22T09:27:33.243Z,100259.63
2022-10-22T09:29:59.822Z,100255.41
2022-10-22T09:32:26.266Z,100250.47
2022-10-22T09:34:52.741Z,100239.81
2022-10-22T09:37:20.138Z,100241.13
2022-10-22T09:39:47.552Z,100237.50
2022-10-22T09:42:14.041Z,100238.22
2022-10-22T09:44:43.717Z,100233.03
2022-10-22T09:47:12.777Z,100236.13
2022-10-22T09:49:40.148Z,100236.13
2022-10-22T09:52:06.611Z,100229.81
2022-10-22T09:54:33.073Z,100230.97
2022-10-22T09:56:59.539Z,100231.03
2022-10-22T09:59:25.974Z,100221.75
2022-10-22T10:01:52.423Z,100223.66
2022-10-22T10:04:18.900Z,100228.41
2022-10-22T10:06:45.362Z,100230.41
2022-10-22T10:09:11.874Z,100233.13
2022-10-22T10:11:38.392Z,100232.84
2022-10-22T10:14:04.872Z,100233.78
2022-10-22T10:16:31.333Z,100227.47
2022-10-22T10:18:57.839Z,100232.81
2022-10-22T10:21:24.284Z,100235.91
2022-10-22T10:23:50.746Z,100238.63
2022-10-22T10:26:17.233Z,100248.13
2022-10-22T10:28:43.702Z,100243.69
2022-10-22T10:31:10.185Z,100252.84
2022-10-22T10:33:37.608Z,100255.22
2022-10-22T10:36:04.072Z,100247.66
2022-10-22T10:38:30.529Z,100246.03
2022-10-22T10:40:57.006Z,100239.25
2022-10-22T10:43:24.391Z,100238.09
2022-10-22T10:45:55.510Z,100250.13
2022-10-22T10:48:23.282Z,100261.28
2022-10-22T10:50:49.744Z,100258.84
2022-10-22T10:53:16.213Z,100261.28
2022-10-22T10:55:42.842Z,100258.88
2022-10-22T10:58:09.559Z,100265.97
2022-10-22T11:00:36.046Z,100260.75
2022-10-22T11:03:02.527Z,100260.25
2022-10-22T11:05:29.900Z,100251.34
2022-10-22T11:07:56.811Z,100253.16
2022-10-22T11:10:23.459Z,100249.22
2022-10-22T11:12:50.916Z,100237.72
2022-10-22T11:15:18.318Z,100238.53
2022-10-22T11:17:44.776Z,100227.41
2022-10-22T11:20:12.166Z,100227.06
2022-10-22T11:22:44.482Z,100222.25
2022-10-22T11:25:18.070Z,100221.50
2022-10-22T11:27:44.718Z,100220.34
2022-10-22T11:30:12.217Z,100223.91
2022-10-22T11:32:38.851Z,100227.06
2022-10-22T11:35:05.511Z,100223.84
2022-10-22T11:37:32.225Z,100223.47
2022-10-22T11:40:00.085Z,100222.72
2022-10-22T11:42:26.809Z,100221.09
2022-10-22T11:44:53.466Z,100221.91
2022-10-22T11:47:19.978Z,100218.38
2022-10-22T11:49:47.788Z,100224.28
2022-10-22T11:52:15.243Z,100217.13
2022-10-22T11:54:41.766Z,100221.50
2022-10-22T11:57:09.324Z,100216.78
2022-10-22T11:59:36.098Z,100208.84
2022-10-22T12:02:03.020Z,100215.53
2022-10-22T12:04:30.543Z,100213.16
2022-10-22T12:06:57.074Z,100198.50
2022-10-22T12:09:24.696Z,100204.47
2022-10-22T12:11:51.205Z,100206.09
2022-10-22T12:14:18.546Z,100194.56
2022-10-22T12:17:01.462Z,100201.66
2022-10-22T12:19:29.167Z,100194.94
2022-10-22T12:21:56.641Z,100191.81
2022-10-22T12:24:24.136Z,100183.88
2022-10-22T12:26:51.743Z,100184.28
2022-10-22T12:29:19.226Z,100195.00
2022-10-22T12:31:45.663Z,100187.44
2022-10-22T12:34:12.220Z,100185.03
2022-10-22T12:36:38.826Z,100184.66
2022-10-22T12:39:05.345Z,100178.72
2022-10-22T12:41:31.941Z,100183.47
2022-10-22T12:43:59.526Z,100183.88
2022-10-22T12:46:25.961Z,100178.34
2022-10-22T12:48:52.515Z,100179.09
2022-10-22T12:51:19.993Z,100183.09
2022-10-22T12:53:47.603Z,100183.09
2022-10-22T12:56:14.129Z,100179.19
2022-10-22T12:58:41.655Z,100179.16
2022-10-22T13:01:08.482Z,100180.72
2022-10-22T13:03:34.981Z,100176.75
2022-10-22T13:06:01.537Z,100181.13
2022-10-22T13:08:28.097Z,100188.25
2022-10-22T13:10:54.598Z,100205.31
2022-10-22T13:13:21.106Z,100198.59
2022-10-22T13:15:47.614Z,100200.97
2022-10-22T13:18:14.982Z,100202.13
2022-10-22T13:20:41.433Z,100204.13
2022-10-22T13:23:07.949Z,100206.53
2022-10-22T13:25:35.413Z,100208.50
2022-10-22T13:28:02.885Z,100213.25
2022-10-22T13:30:30.460Z,100205.28
2022-10-22T13:32:57.872Z,100210.84
2022-10-22T13:35:24.296Z,100202.53
2022-10-22T13:37:50.856Z,100207.28
2022-10-22T13:40:17.533Z,100197.34
2022-10-22T13:42:44.378Z,100199.69
2022-10-22T13:45:11.157Z,100200.81
2022-10-22T13:47:38.680Z,100210.78
2022-10-22T13:50:05.242Z,100204.41
2022-10-22T13:52:32.823Z,100206.41
2022-10-22T13:54:59.758Z,100199.28
2022-10-22T13:57:27.421Z,100203.22
2022-10-22T13:59:53.912Z,100200.38
2022-10-22T14:02:21.367Z,100205.16
2022-10-22T14:04:48.987Z,100193.25
2022-10-22T14:07:16.510Z,100192.09
2022-10-22T14:09:44.010Z,100193.25
2022-10-22T14:12:11.546Z,100188.09
2022-10-22T14:14:38.195Z,100185.38
2022-10-22T14:17:05.874Z,100186.94
2022-10-22T14:19:32.621Z,100188.50
2022-10-22T14:21:59.279Z,100188.84
2022-10-22T14:24:25.865Z,100191.97
2022-10-22T14:26:53.296Z,100190.81
2022-10-22T14:29:20.036Z,100180.09
2022-10-22T14:31:46.555Z,100181.28
2022-10-22T14:34:13.942Z,100173.75
2022-10-22T14:36:41.419Z,100170.19
2022-10-22T14:39:08.103Z,100170.25
2022-10-22T14:41:35.571Z,100165.06
2022-10-22T14:44:02.048Z,100180.56
2022-10-22T14:46:29.647Z,100169.00
2022-10-22T14:48:56.099Z,100172.16
2022-10-22T14:51:22.549Z,100173.34
2022-10-22T14:53:49.054Z,100177.31
2022-10-22T14:56:15.590Z,100178.41
2022-10-22T14:58:42.238Z,100177.31
2022-10-22T15:01:08.772Z,100184.44
2022-10-22T15:03:36.206Z,100189.19
2022-10-22T15:06:03.581Z,100187.94
2022-10-22T15:08:30.078Z,100188.31
2022-10-22T15:10:56.848Z,100183.06
2022-10-22T15:13:24.245Z,100189.84
2022-10-22T15:15:51.694Z,100190.66
2022-10-22T15:18:18.291Z,100196.22
2022-10-22T15:20:44.808Z,100192.59
2022-10-22T15:23:11.292Z,100190.31
2022-10-22T15:25:38.716Z,100197.50
2022-10-22T15:28:09.825Z,100207.31
2022-10-22T15:30:36.551Z,100205.44
2022-10-22T15:33:03.412Z,100206.56
2022-10-22T15:35:30.016Z,100210.50
2022-10-22T15:37:57.453Z,100202.66
2022-10-22T15:40:23.956Z,100203.00
2022-10-22T15:42:50.465Z,100200.22
2022-10-22T15:45:17.068Z,100200.97
2022-10-22T15:47:47.232Z,100201.38
2022-10-22T15:50:14.516Z,100205.31
2022-10-22T15:52:40.970Z,100204.47
2022-10-22T15:55:07.534Z,100205.78
2022-10-22T15:57:34.957Z,100209.03
2022-10-22T16:00:01.421Z,100204.28
2022-10-22T16:02:28.831Z,100206.25
2022-10-22T16:04:55.327Z,100211.44
2022-10-22T16:07:23.976Z,100212.25
2022-10-22T16:09:52.242Z,100214.16
2022-10-22T16:12:19.830Z,100217.41
2022-10-22T16:14:47.301Z,100217.78
2022-10-22T16:17:14.723Z,100219.00
2022-10-22T16:19:41.228Z,100225.78
2022-10-22T16:22:07.701Z,100218.34
2022-10-22T16:24:34.158Z,100218.25
2022-10-22T16:27:00.626Z,100218.13
2022-10-22T16:29:27.383Z,100222.13
2022-10-22T16:31:54.776Z,100226.88
2022-10-22T16:34:21.413Z,100231.25
2022-10-22T16:36:48.917Z,100236.84
2022-10-22T16:39:15.446Z,100232.84
2022-10-22T16:41:42.883Z,100225.63
2022-10-22T16:44:09.355Z,100232.84
2022-10-22T16:46:35.818Z,100235.38
2022-10-22T16:49:03.210Z,100237.41
2022-10-22T16:51:30.668Z,100235.81
2022-10-22T16:53:57.098Z,100247.03
2022-10-22T16:56:24.526Z,100243.41
2022-10-22T16:58:51.004Z,100246.19
2022-10-22T17:01:18.198Z,100245.81
2022-10-22T17:03:45.813Z,100241.06
2022-10-22T17:06:12.311Z,100243.47
2022-10-22T17:08:38.822Z,100245.06
2022-10-22T17:11:06.279Z,100247.03
2022-10-22T17:13:32.760Z,100255.75
2022-10-22T17:16:00.428Z,100248.56
2022-10-22T17:18:27.865Z,100247.84
2022-10-22T17:20:55.270Z,100242.63
2022-10-22T17:23:22.749Z,100243.84
2022-10-22T17:25:50.184Z,100245.00
2022-10-22T17:28:16.695Z,100241.03
2022-10-22T17:30:44.154Z,100243.44
2022-10-22T17:33:10.626Z,100242.88
2022-10-22T17:35:38.023Z,100244.94
2022-10-22T17:38:06.197Z,100248.53
2022-10-22T17:40:33.643Z,100245.75
2022-10-22T17:43:00.092Z,100239.06
2022-10-22T17:45:27.535Z,100240.63
2022-10-22T17:47:54.014Z,100243.03
2022-10-22T17:50:20.509Z,100240.63
2022-10-22T17:52:47.005Z,100246.22
2022-10-22T17:55:14.474Z,100246.59
2022-10-22T17:57:40.943Z,100247.81
2022-10-22T18:00:08.081Z,100246.22
2022-10-22T18:02:34.557Z,100245.03
2022-10-22T18:05:01.963Z,100251.75
2022-10-22T18:07:28.425Z,100247.03
2022-10-22T18:09:55.826Z,100245.84
2022-10-22T18:12:22.374Z,100251.78
2022-10-22T18:14:49.779Z,100249.41
2022-10-22T18:17:16.478Z,100255.00
2022-10-22T18:19:42.974Z,100254.22
2022-10-22T18:22:09.457Z,100255.81
2022-10-22T18:24:35.948Z,100254.56
2022-10-22T18:27:03.482Z,100253.38
2022-10-22T18:29:30.106Z,100249.00
2022-10-22T18:31:56.572Z,100253.75
2022-10-22T18:34:24.023Z,100256.16
2022-10-22T18:36:50.647Z,100253.38
2022-10-22T18:39:18.049Z,100255.38
2022-10-22T18:41:44.565Z,100256.53
2022-10-22T18:44:11.057Z,100249.41
2022-10-22T18:46:38.493Z,100248.22
2022-10-22T18:49:05.107Z,100253.75
2022-10-22T18:51:31.637Z,100254.56
2022-10-22T18:54:05.471Z,100255.38
2022-10-22T18:56:37.921Z,100258.19
2022-10-22T18:59:05.350Z,100249.00
2022-10-22T19:01:32.791Z,100256.94
2022-10-22T19:04:00.390Z,100260.09
2022-10-22T19:06:27.804Z,100258.53
2022-10-22T19:08:54.313Z,100255.38
2022-10-22T19:11:21.778Z,100258.19
2022-10-22T19:13:48.250Z,100265.75
2022-10-22T19:16:14.719Z,100261.81
2022-10-22T19:18:41.172Z,100264.59
2022-10-22T19:21:07.649Z,100264.97
2022-10-22T19:23:35.114Z,100263.38
2022-10-22T19:26:02.707Z,100260.19
2022-10-22T19:28:29.175Z,100266.53
2022-10-22T19:30:55.625Z,100265.34
2022-10-22T19:33:22.120Z,100271.69
2022-10-22T19:35:49.543Z,100278.06
2022-10-22T19:38:16.030Z,100282.47
2022-10-22T19:40:42.498Z,100283.69
2022-10-22T19:43:09.085Z,100292.78
2022-10-22T19:45:35.560Z,100287.25
2022-10-22T19:48:02.987Z,100290.44
2022-10-22T19:50:29.451Z,100288.78
2022-10-22T19:52:56.827Z,100293.59
2022-10-22T19:55:23.339Z,100293.63
2022-10-22T19:57:50.732Z,100297.19
2022-10-22T20:00:18.129Z,100297.59
2022-10-22T20:02:45.519Z,100303.94
2022-10-22T20:05:12.985Z,100311.50
2022-10-22T20:07:39.686Z,100314.28
2022-10-22T20:10:06.373Z,100314.28
2022-10-22T20:12:32.842Z,100323.81
2022-10-22T20:15:00.312Z,100324.63
2022-10-22T20:17:27.666Z,100330.84
2022-10-22T20:19:55.046Z,100323.94
2022-10-22T20:22:21.512Z,100330.44
2022-10-22T20:24:47.969Z,100332.38
2022-10-22T20:27:15.378Z,100334.66
2022-10-22T20:29:41.822Z,100340.56
2022-10-22T20:32:09.164Z,100335.09
2022-10-22T20:34:36.634Z,100342.25
2022-10-22T20:37:03.081Z,100338.66
2022-10-22T20:39:30.438Z,100342.06
2022-10-22T20:41:57.130Z,100334.97
2022-10-22T20:44:23.667Z,100342.16
2022-10-22T20:46:51.082Z,100347.09
2022-10-22T20:49:17.567Z,100347.00
2022-10-22T20:51:44.022Z,100346.47
2022-10-22T20:54:11.376Z,100346.47
2022-10-22T20:56:37.833Z,100351.03
2022-10-22T20:59:04.338Z,100347.19
2022-10-22T21:01:31.753Z,100357.97
2022-10-22T21:03:58.243Z,100337.03
2022-10-22T21:06:24.697Z,100336.19
2022-10-22T21:08:51.265Z,100344.88
2022-10-22T21:11:18.667Z,100344.88
2022-10-22T21:13:45.183Z,100340.84
2022-10-22T21:16:11.608Z,100356.66
2022-10-22T21:18:38.923Z,100348.44
2022-10-22T21:21:05.354Z,100355.63
2022-10-22T21:23:32.659Z,100357.16
2022-10-22T21:26:01.829Z,100357.69
2022-10-22T21:28:28.267Z,100357.38
2022-10-22T21:30:55.501Z,100358.69
2022-10-22T21:33:21.996Z,100359.56
2022-10-22T21:35:48.438Z,100364.75
2022-10-22T21:38:15.796Z,100363.50
2022-10-22T21:40:42.253Z,100364.66
2022-10-22T21:43:08.735Z,100366.69
2022-10-22T21:48:07.428Z,100359.97
2022-10-22T21:50:34.787Z,100363.53
2022-10-22T21:53:01.218Z,100363.94
2022-10-22T21:55:28.542Z,100365.53
2022-10-22T21:57:54.968Z,100362.41
2022-10-22T22:00:22.272Z,100369.16
2022-10-22T22:02:49.561Z,100367.59
2022-10-22T22:05:16.862Z,100363.91
2022-10-22T22:07:43.236Z,100369.09
2022-10-22T22:10:10.487Z,100366.31
2022-10-22T22:12:36.897Z,100367.13
2022-10-22T22:15:03.375Z,100372.72
2022-10-22T22:17:30.615Z,100367.16
2022-10-22T22:19:58.867Z,100371.16
2022-10-22T22:22:27.162Z,100369.94
2022-10-22T22:24:53.571Z,100379.56
2022-10-22T22:29:51.436Z,100381.53
2022-10-22T22:32:18.742Z,100379.16
2022-10-22T22:34:47.038Z,100384.72
2022-10-22T22:37:13.481Z,100379.56
2022-10-22T22:39:40.751Z,100390.69
2022-10-22T22:42:07.145Z,100383.53
2022-10-22T22:44:33.600Z,100389.53
2022-10-22T22:47:01.863Z,100401.44
2022-10-22T22:49:28.316Z,100395.47
2022-10-22T22:51:56.568Z,100400.25
2022-10-22T22:54:22.971Z,100405.41
2022-10-22T22:56:51.243Z,100405.06
2022-10-22T22:59:20.344Z,100410.97
2022-10-22T23:01:49.560Z,100411.31
2022-10-22T23:04:18.780Z,100421.28
2022-10-22T23:06:47.953Z,100422.47
2022-10-22T23:09:14.451Z,100424.53
2022-10-22T23:11:42.812Z,100428.91
2022-10-22T23:14:10.021Z,100427.31
2022-10-22T23:16:36.499Z,100421.72
2022-10-22T23:19:02.881Z,100426.47
2022-10-22T23:21:29.263Z,100426.06
2022-10-22T23:23:55.698Z,100420.50
2022-10-22T23:26:22.127Z,100423.31
2022-10-22T23:28:48.533Z,100422.94
2022-10-22T23:31:14.928Z,100424.94
2022-10-22T23:33:44.058Z,100431.69
2022-10-22T23:36:11.290Z,100432.13
2022-10-22T23:38:38.564Z,100432.13
2022-10-22T23:41:04.968Z,100438.88
2022-10-22T23:43:31.372Z,100439.69
2022-10-22T23:45:57.742Z,100446.84
2022-10-22T23:51:10.095Z,100442.47
2022-10-22T23:53:37.286Z,100450.44
2022-10-22T23:56:04.559Z,100447.63
2022-10-22T23:58:30.874Z,100451.66
